sensor_id;sensor_type;location;lat;lon;timestamp;temperature;humidity
21495;DHT22;10909;53.590;10.054;2022-09-09T00:02:23;18.10;75.00
21495;DHT22;10909;53.590;10.054;2022-09-09T00:07:59;18.20;75.60
21495;DHT22;10909;53.590;10.054;2022-09-09T00:10:37;18.20;75.00
21495;DHT22;10909;53.590;10.054;2022-09-09T00:13:20;18.20;75.30
21495;DHT22;10909;53.590;10.054;2022-09-09T00:16:00;18.20;75.50
21495;DHT22;10909;53.590;10.054;2022-09-09T00:18:57;18.20;76.00
21495;DHT22;10909;53.590;10.054;2022-09-09T00:21:33;18.30;75.60
21495;DHT22;10909;53.590;10.054;2022-09-09T00:24:04;18.30;75.10
21495;DHT22;10909;53.590;10.054;2022-09-09T00:26:48;18.30;75.00
21495;DHT22;10909;53.590;10.054;2022-09-09T00:29:25;18.30;75.40
21495;DHT22;10909;53.590;10.054;2022-09-09T00:31:57;18.30;75.00
21495;DHT22;10909;53.590;10.054;2022-09-09T00:34:29;18.30;75.10
21495;DHT22;10909;53.590;10.054;2022-09-09T00:36:56;18.30;75.20
21495;DHT22;10909;53.590;10.054;2022-09-09T00:39:32;18.30;75.20
21495;DHT22;10909;53.590;10.054;2022-09-09T00:44:51;18.40;75.40
21495;DHT22;10909;53.590;10.054;2022-09-09T00:47:45;18.40;75.40
21495;DHT22;10909;53.590;10.054;2022-09-09T00:53:05;18.40;75.40
21495;DHT22;10909;53.590;10.054;2022-09-09T00:58:09;18.40;75.40
21495;DHT22;10909;53.590;10.054;2022-09-09T01:00:44;18.40;75.30
21495;DHT22;10909;53.590;10.054;2022-09-09T01:17:03;18.40;75.80
21495;DHT22;10909;53.590;10.054;2022-09-09T01:19:40;18.40;75.20
21495;DHT22;10909;53.590;10.054;2022-09-09T01:28:34;18.40;75.60
21495;DHT22;10909;53.590;10.054;2022-09-09T01:31:04;18.40;74.70
21495;DHT22;10909;53.590;10.054;2022-09-09T01:33:32;18.40;74.80
21495;DHT22;10909;53.590;10.054;2022-09-09T01:36:49;18.30;74.90
21495;DHT22;10909;53.590;10.054;2022-09-09T01:38:48;18.30;74.90
21495;DHT22;10909;53.590;10.054;2022-09-09T01:41:13;18.30;74.80
21495;DHT22;10909;53.590;10.054;2022-09-09T01:43:40;18.30;74.80
21495;DHT22;10909;53.590;10.054;2022-09-09T01:46:06;18.30;74.90
21495;DHT22;10909;53.590;10.054;2022-09-09T01:48:39;18.20;74.90
21495;DHT22;10909;53.590;10.054;2022-09-09T01:51:08;18.20;75.00
21495;DHT22;10909;53.590;10.054;2022-09-09T01:53:34;18.20;75.10
21495;DHT22;10909;53.590;10.054;2022-09-09T01:59:02;18.20;75.30
21495;DHT22;10909;53.590;10.054;2022-09-09T02:01:39;18.20;75.60
21495;DHT22;10909;53.590;10.054;2022-09-09T02:04:16;18.20;75.00
21495;DHT22;10909;53.590;10.054;2022-09-09T02:06:46;18.20;75.10
21495;DHT22;10909;53.590;10.054;2022-09-09T02:09:15;18.20;75.10
21495;DHT22;10909;53.590;10.054;2022-09-09T02:11:44;18.20;75.20
21495;DHT22;10909;53.590;10.054;2022-09-09T02:14:21;18.20;75.20
21495;DHT22;10909;53.590;10.054;2022-09-09T02:17:16;18.20;75.10
21495;DHT22;10909;53.590;10.054;2022-09-09T02:19:49;18.20;76.30
21495;DHT22;10909;53.590;10.054;2022-09-09T02:22:22;18.10;75.10
21495;DHT22;10909;53.590;10.054;2022-09-09T02:24:51;18.10;75.10
21495;DHT22;10909;53.590;10.054;2022-09-09T02:27:20;18.10;75.00
21495;DHT22;10909;53.590;10.054;2022-09-09T02:29:48;18.10;75.10
21495;DHT22;10909;53.590;10.054;2022-09-09T02:32:18;18.10;75.20
21495;DHT22;10909;53.590;10.054;2022-09-09T02:34:50;18.10;75.30
21495;DHT22;10909;53.590;10.054;2022-09-09T02:37:21;18.10;75.30
21495;DHT22;10909;53.590;10.054;2022-09-09T02:39:48;18.10;75.30
21495;DHT22;10909;53.590;10.054;2022-09-09T02:42:14;18.00;75.20
21495;DHT22;10909;53.590;10.054;2022-09-09T02:44:40;18.10;75.20
21495;DHT22;10909;53.590;10.054;2022-09-09T02:47:30;18.00;75.10
21495;DHT22;10909;53.590;10.054;2022-09-09T02:50:15;18.00;75.50
21495;DHT22;10909;53.590;10.054;2022-09-09T02:55:39;18.00;75.20
21495;DHT22;10909;53.590;10.054;2022-09-09T02:58:08;18.00;75.80
21495;DHT22;10909;53.590;10.054;2022-09-09T03:00:36;18.00;75.30
21495;DHT22;10909;53.590;10.054;2022-09-09T03:03:06;18.00;75.30
21495;DHT22;10909;53.590;10.054;2022-09-09T03:05:32;18.00;75.30
21495;DHT22;10909;53.590;10.054;2022-09-09T03:07:58;18.00;75.20
21495;DHT22;10909;53.590;10.054;2022-09-09T03:10:24;17.90;75.00
21495;DHT22;10909;53.590;10.054;2022-09-09T03:12:49;17.90;75.10
21495;DHT22;10909;53.590;10.054;2022-09-09T03:15:16;17.90;75.20
21495;DHT22;10909;53.590;10.054;2022-09-09T03:17:42;17.90;75.20
21495;DHT22;10909;53.590;10.054;2022-09-09T03:20:08;17.90;75.10
21495;DHT22;10909;53.590;10.054;2022-09-09T03:22:34;17.90;75.20
21495;DHT22;10909;53.590;10.054;2022-09-09T03:25:02;17.80;75.10
21495;DHT22;10909;53.590;10.054;2022-09-09T03:27:31;17.80;75.30
21495;DHT22;10909;53.590;10.054;2022-09-09T03:29:57;17.80;75.40
21495;DHT22;10909;53.590;10.054;2022-09-09T03:32:23;17.80;75.50
21495;DHT22;10909;53.590;10.054;2022-09-09T03:34:51;17.80;75.40
21495;DHT22;10909;53.590;10.054;2022-09-09T03:37:18;17.80;75.40
21495;DHT22;10909;53.590;10.054;2022-09-09T03:39:44;17.80;75.30
21495;DHT22;10909;53.590;10.054;2022-09-09T03:42:12;17.80;75.40
21495;DHT22;10909;53.590;10.054;2022-09-09T03:44:39;17.80;75.40
21495;DHT22;10909;53.590;10.054;2022-09-09T03:47:06;17.80;75.40
21495;DHT22;10909;53.590;10.054;2022-09-09T03:49:32;17.80;75.40
21495;DHT22;10909;53.590;10.054;2022-09-09T03:51:57;17.70;75.20
21495;DHT22;10909;53.590;10.054;2022-09-09T03:54:25;17.70;75.10
21495;DHT22;10909;53.590;10.054;2022-09-09T03:56:51;17.70;75.20
21495;DHT22;10909;53.590;10.054;2022-09-09T03:59:16;17.70;75.20
21495;DHT22;10909;53.590;10.054;2022-09-09T04:01:42;17.70;75.30
21495;DHT22;10909;53.590;10.054;2022-09-09T04:04:08;17.70;75.30
21495;DHT22;10909;53.590;10.054;2022-09-09T04:06:34;17.70;75.40
21495;DHT22;10909;53.590;10.054;2022-09-09T04:09:01;17.60;75.40
21495;DHT22;10909;53.590;10.054;2022-09-09T04:11:29;17.70;75.50
21495;DHT22;10909;53.590;10.054;2022-09-09T04:13:55;17.60;75.50
21495;DHT22;10909;53.590;10.054;2022-09-09T04:16:20;17.70;75.50
21495;DHT22;10909;53.590;10.054;2022-09-09T04:18:46;17.70;75.50
21495;DHT22;10909;53.590;10.054;2022-09-09T04:21:12;17.60;75.40
21495;DHT22;10909;53.590;10.054;2022-09-09T04:23:38;17.60;75.40
21495;DHT22;10909;53.590;10.054;2022-09-09T04:26:07;17.60;75.40
21495;DHT22;10909;53.590;10.054;2022-09-09T04:28:34;17.50;75.40
21495;DHT22;10909;53.590;10.054;2022-09-09T04:31:16;17.60;75.40
21495;DHT22;10909;53.590;10.054;2022-09-09T04:33:43;17.60;75.40
21495;DHT22;10909;53.590;10.054;2022-09-09T04:36:08;17.60;75.30
21495;DHT22;10909;53.590;10.054;2022-09-09T04:38:34;17.50;75.30
21495;DHT22;10909;53.590;10.054;2022-09-09T04:41:01;17.50;75.40
21495;DHT22;10909;53.590;10.054;2022-09-09T04:43:27;17.50;75.50
21495;DHT22;10909;53.590;10.054;2022-09-09T04:45:53;17.50;75.60
21495;DHT22;10909;53.590;10.054;2022-09-09T04:48:19;17.50;75.60
21495;DHT22;10909;53.590;10.054;2022-09-09T04:51:00;17.50;75.70
21495;DHT22;10909;53.590;10.054;2022-09-09T04:53:26;17.50;76.00
21495;DHT22;10909;53.590;10.054;2022-09-09T04:56:00;17.50;75.80
21495;DHT22;10909;53.590;10.054;2022-09-09T04:58:26;17.50;75.90
21495;DHT22;10909;53.590;10.054;2022-09-09T05:00:53;17.50;75.80
21495;DHT22;10909;53.590;10.054;2022-09-09T05:03:18;17.50;75.80
21495;DHT22;10909;53.590;10.054;2022-09-09T05:05:44;17.50;75.80
21495;DHT22;10909;53.590;10.054;2022-09-09T05:08:10;17.50;75.80
21495;DHT22;10909;53.590;10.054;2022-09-09T05:10:38;17.50;75.80
21495;DHT22;10909;53.590;10.054;2022-09-09T05:13:04;17.60;75.80
21495;DHT22;10909;53.590;10.054;2022-09-09T05:15:30;17.50;75.70
21495;DHT22;10909;53.590;10.054;2022-09-09T05:18:01;17.50;75.70
21495;DHT22;10909;53.590;10.054;2022-09-09T05:20:28;17.50;75.80
21495;DHT22;10909;53.590;10.054;2022-09-09T05:22:55;17.50;75.70
21495;DHT22;10909;53.590;10.054;2022-09-09T05:25:22;17.50;75.70
21495;DHT22;10909;53.590;10.054;2022-09-09T05:27:50;17.50;75.50
21495;DHT22;10909;53.590;10.054;2022-09-09T05:30:16;17.50;75.50
21495;DHT22;10909;53.590;10.054;2022-09-09T05:32:44;17.50;75.70
21495;DHT22;10909;53.590;10.054;2022-09-09T05:35:09;17.50;75.70
21495;DHT22;10909;53.590;10.054;2022-09-09T05:37:35;17.50;75.80
21495;DHT22;10909;53.590;10.054;2022-09-09T05:40:01;17.50;75.80
21495;DHT22;10909;53.590;10.054;2022-09-09T05:42:30;17.50;75.80
21495;DHT22;10909;53.590;10.054;2022-09-09T05:44:56;17.50;75.90
21495;DHT22;10909;53.590;10.054;2022-09-09T05:47:21;17.50;76.10
21495;DHT22;10909;53.590;10.054;2022-09-09T05:49:47;17.50;76.30
21495;DHT22;10909;53.590;10.054;2022-09-09T05:52:13;17.60;76.40
21495;DHT22;10909;53.590;10.054;2022-09-09T05:54:39;17.60;76.30
21495;DHT22;10909;53.590;10.054;2022-09-09T05:57:06;17.70;76.40
21495;DHT22;10909;53.590;10.054;2022-09-09T05:59:32;17.70;76.40
21495;DHT22;10909;53.590;10.054;2022-09-09T06:01:58;17.70;76.50
21495;DHT22;10909;53.590;10.054;2022-09-09T06:04:24;17.80;76.60
21495;DHT22;10909;53.590;10.054;2022-09-09T06:06:50;17.80;76.60
21495;DHT22;10909;53.590;10.054;2022-09-09T06:09:15;17.80;76.50
21495;DHT22;10909;53.590;10.054;2022-09-09T06:11:42;17.80;76.60
21495;DHT22;10909;53.590;10.054;2022-09-09T06:14:08;17.90;76.70
21495;DHT22;10909;53.590;10.054;2022-09-09T06:16:34;18.00;76.70
21495;DHT22;10909;53.590;10.054;2022-09-09T06:19:03;18.00;76.70
21495;DHT22;10909;53.590;10.054;2022-09-09T06:21:36;18.10;76.80
21495;DHT22;10909;53.590;10.054;2022-09-09T06:24:02;18.10;76.80
21495;DHT22;10909;53.590;10.054;2022-09-09T06:26:31;18.10;76.50
21495;DHT22;10909;53.590;10.054;2022-09-09T06:28:57;18.20;76.50
21495;DHT22;10909;53.590;10.054;2022-09-09T06:31:26;18.20;76.40
21495;DHT22;10909;53.590;10.054;2022-09-09T06:33:56;18.20;76.50
21495;DHT22;10909;53.590;10.054;2022-09-09T06:36:30;18.20;76.50
21495;DHT22;10909;53.590;10.054;2022-09-09T06:38:58;18.30;76.70
21495;DHT22;10909;53.590;10.054;2022-09-09T06:41:26;18.30;76.50
21495;DHT22;10909;53.590;10.054;2022-09-09T06:43:52;18.30;76.40
21495;DHT22;10909;53.590;10.054;2022-09-09T06:46:20;18.40;76.30
21495;DHT22;10909;53.590;10.054;2022-09-09T06:48:47;18.40;76.30
21495;DHT22;10909;53.590;10.054;2022-09-09T06:51:14;18.40;76.30
21495;DHT22;10909;53.590;10.054;2022-09-09T06:53:41;18.40;76.30
21495;DHT22;10909;53.590;10.054;2022-09-09T06:58:36;18.50;76.30
21495;DHT22;10909;53.590;10.054;2022-09-09T07:01:06;18.50;76.20
21495;DHT22;10909;53.590;10.054;2022-09-09T07:03:32;18.50;76.10
21495;DHT22;10909;53.590;10.054;2022-09-09T07:06:01;18.50;76.10
21495;DHT22;10909;53.590;10.054;2022-09-09T07:08:27;18.50;76.30
21495;DHT22;10909;53.590;10.054;2022-09-09T07:10:53;18.60;76.40
21495;DHT22;10909;53.590;10.054;2022-09-09T07:13:28;18.60;76.60
21495;DHT22;10909;53.590;10.054;2022-09-09T07:15:54;18.70;76.90
21495;DHT22;10909;53.590;10.054;2022-09-09T07:18:19;18.70;76.70
21495;DHT22;10909;53.590;10.054;2022-09-09T07:20:55;18.80;76.90
21495;DHT22;10909;53.590;10.054;2022-09-09T07:23:22;18.90;77.20
21495;DHT22;10909;53.590;10.054;2022-09-09T07:25:48;18.90;76.80
21495;DHT22;10909;53.590;10.054;2022-09-09T07:28:14;19.00;76.70
21495;DHT22;10909;53.590;10.054;2022-09-09T07:30:40;19.00;76.50
21495;DHT22;10909;53.590;10.054;2022-09-09T07:33:06;19.00;76.30
21495;DHT22;10909;53.590;10.054;2022-09-09T07:35:32;19.00;76.20
21495;DHT22;10909;53.590;10.054;2022-09-09T07:38:00;19.10;76.20
21495;DHT22;10909;53.590;10.054;2022-09-09T07:40:26;19.10;76.10
21495;DHT22;10909;53.590;10.054;2022-09-09T07:42:52;19.20;76.00
21495;DHT22;10909;53.590;10.054;2022-09-09T07:45:18;19.20;76.10
21495;DHT22;10909;53.590;10.054;2022-09-09T07:47:45;19.20;76.40
21495;DHT22;10909;53.590;10.054;2022-09-09T07:50:10;19.20;76.40
21495;DHT22;10909;53.590;10.054;2022-09-09T07:52:37;19.30;76.50
21495;DHT22;10909;53.590;10.054;2022-09-09T07:55:03;19.40;76.70
21495;DHT22;10909;53.590;10.054;2022-09-09T07:57:30;19.40;76.70
21495;DHT22;10909;53.590;10.054;2022-09-09T07:59:56;19.50;76.80
21495;DHT22;10909;53.590;10.054;2022-09-09T08:02:23;19.60;76.70
21495;DHT22;10909;53.590;10.054;2022-09-09T08:04:49;19.70;76.70
21495;DHT22;10909;53.590;10.054;2022-09-09T08:07:15;19.70;76.70
21495;DHT22;10909;53.590;10.054;2022-09-09T08:09:41;19.80;76.70
21495;DHT22;10909;53.590;10.054;2022-09-09T08:12:07;19.90;76.70
21495;DHT22;10909;53.590;10.054;2022-09-09T08:14:34;20.00;76.40
21495;DHT22;10909;53.590;10.054;2022-09-09T08:17:00;20.00;76.00
21495;DHT22;10909;53.590;10.054;2022-09-09T08:19:26;20.10;75.90
21495;DHT22;10909;53.590;10.054;2022-09-09T08:21:54;20.10;75.80
21495;DHT22;10909;53.590;10.054;2022-09-09T08:24:20;20.20;75.90
21495;DHT22;10909;53.590;10.054;2022-09-09T08:26:48;20.20;75.70
21495;DHT22;10909;53.590;10.054;2022-09-09T08:29:14;20.30;75.50
21495;DHT22;10909;53.590;10.054;2022-09-09T08:31:48;20.30;75.40
21495;DHT22;10909;53.590;10.054;2022-09-09T08:34:14;20.30;75.40
21495;DHT22;10909;53.590;10.054;2022-09-09T08:36:45;20.40;75.60
21495;DHT22;10909;53.590;10.054;2022-09-09T08:39:12;20.40;75.50
21495;DHT22;10909;53.590;10.054;2022-09-09T08:50:26;20.70;74.70
21495;DHT22;10909;53.590;10.054;2022-09-09T08:55:54;20.80;74.70
21495;DHT22;10909;53.590;10.054;2022-09-09T08:58:27;20.90;74.50
21495;DHT22;10909;53.590;10.054;2022-09-09T09:11:37;21.10;75.10
21495;DHT22;10909;53.590;10.054;2022-09-09T09:19:16;21.30;73.90
21495;DHT22;10909;53.590;10.054;2022-09-09T09:21:44;21.40;74.10
21495;DHT22;10909;53.590;10.054;2022-09-09T09:24:18;21.50;74.00
21495;DHT22;10909;53.590;10.054;2022-09-09T09:26:44;21.60;73.70
21495;DHT22;10909;53.590;10.054;2022-09-09T09:29:14;21.60;73.70
21495;DHT22;10909;53.590;10.054;2022-09-09T09:31:45;21.70;73.50
21495;DHT22;10909;53.590;10.054;2022-09-09T09:34:13;21.80;73.50
21495;DHT22;10909;53.590;10.054;2022-09-09T09:36:44;21.80;74.10
21495;DHT22;10909;53.590;10.054;2022-09-09T09:39:25;21.90;72.90
21495;DHT22;10909;53.590;10.054;2022-09-09T09:41:52;22.00;72.50
21495;DHT22;10909;53.590;10.054;2022-09-09T09:44:26;22.10;73.00
21495;DHT22;10909;53.590;10.054;2022-09-09T09:46:53;22.10;72.30
21495;DHT22;10909;53.590;10.054;2022-09-09T09:49:29;22.20;72.60
21495;DHT22;10909;53.590;10.054;2022-09-09T09:52:00;22.30;72.20
21495;DHT22;10909;53.590;10.054;2022-09-09T09:54:33;22.30;71.70
21495;DHT22;10909;53.590;10.054;2022-09-09T09:57:16;22.40;71.30
21495;DHT22;10909;53.590;10.054;2022-09-09T09:59:42;22.50;70.50
21495;DHT22;10909;53.590;10.054;2022-09-09T10:02:22;22.50;71.00
21495;DHT22;10909;53.590;10.054;2022-09-09T10:05:15;22.50;71.00
21495;DHT22;10909;53.590;10.054;2022-09-09T10:07:41;22.50;70.20
21495;DHT22;10909;53.590;10.054;2022-09-09T10:10:20;22.50;70.50
21495;DHT22;10909;53.590;10.054;2022-09-09T10:15:45;22.60;70.20
21495;DHT22;10909;53.590;10.054;2022-09-09T10:21:11;22.60;69.40
21495;DHT22;10909;53.590;10.054;2022-09-09T10:23:58;22.60;68.80
21495;DHT22;10909;53.590;10.054;2022-09-09T10:37:22;23.00;69.00
21495;DHT22;10909;53.590;10.054;2022-09-09T10:40:02;23.10;68.50
21495;DHT22;10909;53.590;10.054;2022-09-09T10:42:32;23.10;68.10
21495;DHT22;10909;53.590;10.054;2022-09-09T10:48:31;23.20;67.40
21495;DHT22;10909;53.590;10.054;2022-09-09T10:51:36;23.30;67.60
21495;DHT22;10909;53.590;10.054;2022-09-09T10:56:49;23.40;67.50
21495;DHT22;10909;53.590;10.054;2022-09-09T10:59:21;23.50;67.60
21495;DHT22;10909;53.590;10.054;2022-09-09T11:02:33;23.50;67.50
21495;DHT22;10909;53.590;10.054;2022-09-09T11:05:00;23.60;66.60
21495;DHT22;10909;53.590;10.054;2022-09-09T11:07:43;23.70;66.70
21495;DHT22;10909;53.590;10.054;2022-09-09T11:13:26;23.70;65.00
21495;DHT22;10909;53.590;10.054;2022-09-09T11:16:23;23.70;66.10
21495;DHT22;10909;53.590;10.054;2022-09-09T11:18:46;23.70;65.70
21495;DHT22;10909;53.590;10.054;2022-09-09T11:21:25;23.70;66.20
21495;DHT22;10909;53.590;10.054;2022-09-09T11:24:56;23.70;65.50
21495;DHT22;10909;53.590;10.054;2022-09-09T11:32:54;23.80;65.20
21495;DHT22;10909;53.590;10.054;2022-09-09T11:38:17;24.10;65.40
21495;DHT22;10909;53.590;10.054;2022-09-09T11:40:45;24.10;65.40
21495;DHT22;10909;53.590;10.054;2022-09-09T11:43:32;24.20;66.00
21495;DHT22;10909;53.590;10.054;2022-09-09T11:46:01;24.30;64.80
21495;DHT22;10909;53.590;10.054;2022-09-09T11:48:34;24.30;65.40
21495;DHT22;10909;53.590;10.054;2022-09-09T11:53:55;24.50;64.20
21495;DHT22;10909;53.590;10.054;2022-09-09T11:56:42;24.50;64.30
21495;DHT22;10909;53.590;10.054;2022-09-09T11:59:31;24.50;64.10
21495;DHT22;10909;53.590;10.054;2022-09-09T12:02:03;24.60;63.30
21495;DHT22;10909;53.590;10.054;2022-09-09T12:04:42;24.60;64.20
21495;DHT22;10909;53.590;10.054;2022-09-09T12:14:43;24.90;64.10
21495;DHT22;10909;53.590;10.054;2022-09-09T12:17:21;24.90;63.60
21495;DHT22;10909;53.590;10.054;2022-09-09T12:19:48;24.90;63.30
21495;DHT22;10909;53.590;10.054;2022-09-09T12:22:54;24.90;62.90
21495;DHT22;10909;53.590;10.054;2022-09-09T12:28:20;24.90;62.30
21495;DHT22;10909;53.590;10.054;2022-09-09T12:31:17;24.90;62.00
21495;DHT22;10909;53.590;10.054;2022-09-09T12:33:47;24.80;61.70
21495;DHT22;10909;53.590;10.054;2022-09-09T12:36:23;24.80;62.70
21495;DHT22;10909;53.590;10.054;2022-09-09T12:38:50;24.80;62.50
21495;DHT22;10909;53.590;10.054;2022-09-09T12:41:25;24.70;62.70
21495;DHT22;10909;53.590;10.054;2022-09-09T12:44:02;24.80;62.70
21495;DHT22;10909;53.590;10.054;2022-09-09T12:46:48;24.80;63.00
21495;DHT22;10909;53.590;10.054;2022-09-09T12:51:52;24.80;63.30
21495;DHT22;10909;53.590;10.054;2022-09-09T12:54:19;24.90;64.10
21495;DHT22;10909;53.590;10.054;2022-09-09T12:56:46;24.90;63.60
21495;DHT22;10909;53.590;10.054;2022-09-09T12:59:26;25.00;63.00
21495;DHT22;10909;53.590;10.054;2022-09-09T13:01:59;25.00;62.10
21495;DHT22;10909;53.590;10.054;2022-09-09T13:04:25;24.90;62.20
21495;DHT22;10909;53.590;10.054;2022-09-09T13:06:51;24.90;62.00
21495;DHT22;10909;53.590;10.054;2022-09-09T13:09:18;24.80;61.90
21495;DHT22;10909;53.590;10.054;2022-09-09T13:11:50;24.70;61.70
21495;DHT22;10909;53.590;10.054;2022-09-09T13:14:23;24.60;61.50
21495;DHT22;10909;53.590;10.054;2022-09-09T13:16:56;24.50;61.70
21495;DHT22;10909;53.590;10.054;2022-09-09T13:19:22;24.40;61.60
21495;DHT22;10909;53.590;10.054;2022-09-09T13:21:52;24.30;61.70
21495;DHT22;10909;53.590;10.054;2022-09-09T13:24:33;24.20;61.80
21495;DHT22;10909;53.590;10.054;2022-09-09T13:27:05;24.10;61.70
21495;DHT22;10909;53.590;10.054;2022-09-09T13:29:51;24.00;62.00
21495;DHT22;10909;53.590;10.054;2022-09-09T13:32:20;23.90;62.00
21495;DHT22;10909;53.590;10.054;2022-09-09T13:34:59;23.80;62.20
21495;DHT22;10909;53.590;10.054;2022-09-09T13:37:35;23.70;62.30
21495;DHT22;10909;53.590;10.054;2022-09-09T13:40:03;23.70;62.40
21495;DHT22;10909;53.590;10.054;2022-09-09T13:42:33;23.60;62.50
21495;DHT22;10909;53.590;10.054;2022-09-09T13:45:02;23.50;62.70
21495;DHT22;10909;53.590;10.054;2022-09-09T13:47:34;23.40;62.80
21495;DHT22;10909;53.590;10.054;2022-09-09T13:52:56;23.30;63.50
21495;DHT22;10909;53.590;10.054;2022-09-09T13:55:27;23.10;63.10
21495;DHT22;10909;53.590;10.054;2022-09-09T13:57:59;23.00;63.10
21495;DHT22;10909;53.590;10.054;2022-09-09T14:00:26;22.90;63.40
21495;DHT22;10909;53.590;10.054;2022-09-09T14:02:54;22.80;63.50
21495;DHT22;10909;53.590;10.054;2022-09-09T14:05:20;22.70;63.80
21495;DHT22;10909;53.590;10.054;2022-09-09T14:07:48;22.60;64.10
21495;DHT22;10909;53.590;10.054;2022-09-09T14:10:14;22.50;64.40
21495;DHT22;10909;53.590;10.054;2022-09-09T14:12:40;22.40;64.70
21495;DHT22;10909;53.590;10.054;2022-09-09T14:15:07;22.30;65.00
21495;DHT22;10909;53.590;10.054;2022-09-09T14:17:34;22.30;65.20
21495;DHT22;10909;53.590;10.054;2022-09-09T14:20:07;22.20;65.40
21495;DHT22;10909;53.590;10.054;2022-09-09T14:22:35;22.20;65.90
21495;DHT22;10909;53.590;10.054;2022-09-09T14:25:02;22.20;65.90
21495;DHT22;10909;53.590;10.054;2022-09-09T14:27:28;22.20;66.10
21495;DHT22;10909;53.590;10.054;2022-09-09T14:29:55;22.20;66.30
21495;DHT22;10909;53.590;10.054;2022-09-09T14:32:21;22.10;66.40
21495;DHT22;10909;53.590;10.054;2022-09-09T14:34:47;22.10;66.50
21495;DHT22;10909;53.590;10.054;2022-09-09T14:37:15;22.10;66.70
21495;DHT22;10909;53.590;10.054;2022-09-09T14:39:41;22.10;66.70
21495;DHT22;10909;53.590;10.054;2022-09-09T14:42:13;22.10;66.60
21495;DHT22;10909;53.590;10.054;2022-09-09T14:44:38;22.10;66.40
21495;DHT22;10909;53.590;10.054;2022-09-09T14:47:05;22.00;66.10
21495;DHT22;10909;53.590;10.054;2022-09-09T14:49:31;22.00;66.20
21495;DHT22;10909;53.590;10.054;2022-09-09T14:51:57;21.90;66.40
21495;DHT22;10909;53.590;10.054;2022-09-09T14:54:23;21.90;66.40
21495;DHT22;10909;53.590;10.054;2022-09-09T14:56:49;21.90;66.40
21495;DHT22;10909;53.590;10.054;2022-09-09T14:59:15;21.80;66.50
21495;DHT22;10909;53.590;10.054;2022-09-09T15:01:40;21.80;66.50
21495;DHT22;10909;53.590;10.054;2022-09-09T15:04:06;21.80;66.70
21495;DHT22;10909;53.590;10.054;2022-09-09T15:06:34;21.80;66.90
21495;DHT22;10909;53.590;10.054;2022-09-09T15:09:02;21.70;67.00
21495;DHT22;10909;53.590;10.054;2022-09-09T15:11:30;21.70;67.00
21495;DHT22;10909;53.590;10.054;2022-09-09T15:13:56;21.70;67.10
21495;DHT22;10909;53.590;10.054;2022-09-09T15:16:27;21.70;67.30
21495;DHT22;10909;53.590;10.054;2022-09-09T15:18:54;21.70;67.60
21495;DHT22;10909;53.590;10.054;2022-09-09T15:21:23;21.60;67.40
21495;DHT22;10909;53.590;10.054;2022-09-09T15:23:49;21.60;67.50
21495;DHT22;10909;53.590;10.054;2022-09-09T15:26:15;21.60;67.60
21495;DHT22;10909;53.590;10.054;2022-09-09T15:28:43;21.60;67.90
21495;DHT22;10909;53.590;10.054;2022-09-09T15:31:13;21.60;68.00
21495;DHT22;10909;53.590;10.054;2022-09-09T15:33:40;21.60;68.10
21495;DHT22;10909;53.590;10.054;2022-09-09T15:36:20;21.60;68.20
21495;DHT22;10909;53.590;10.054;2022-09-09T15:38:46;21.70;68.50
21495;DHT22;10909;53.590;10.054;2022-09-09T15:41:13;21.70;68.20
21495;DHT22;10909;53.590;10.054;2022-09-09T15:43:42;21.70;68.20
21495;DHT22;10909;53.590;10.054;2022-09-09T15:48:50;21.80;68.30
21495;DHT22;10909;53.590;10.054;2022-09-09T15:51:16;21.80;68.10
21495;DHT22;10909;53.590;10.054;2022-09-09T15:53:42;21.90;68.20
21495;DHT22;10909;53.590;10.054;2022-09-09T15:56:08;21.90;68.10
21495;DHT22;10909;53.590;10.054;2022-09-09T15:58:35;21.90;68.00
21495;DHT22;10909;53.590;10.054;2022-09-09T16:01:08;21.90;67.80
21495;DHT22;10909;53.590;10.054;2022-09-09T16:03:35;22.00;67.60
21495;DHT22;10909;53.590;10.054;2022-09-09T16:06:02;22.00;67.60
21495;DHT22;10909;53.590;10.054;2022-09-09T16:08:32;21.90;67.70
21495;DHT22;10909;53.590;10.054;2022-09-09T16:11:10;22.00;68.00
21495;DHT22;10909;53.590;10.054;2022-09-09T16:13:36;22.00;68.10
21495;DHT22;10909;53.590;10.054;2022-09-09T16:16:08;22.00;68.10
21495;DHT22;10909;53.590;10.054;2022-09-09T16:18:42;22.00;68.20
21495;DHT22;10909;53.590;10.054;2022-09-09T16:21:14;22.00;68.20
21495;DHT22;10909;53.590;10.054;2022-09-09T16:23:40;22.10;68.20
21495;DHT22;10909;53.590;10.054;2022-09-09T16:26:12;22.20;68.20
21495;DHT22;10909;53.590;10.054;2022-09-09T16:28:38;22.20;68.20
21495;DHT22;10909;53.590;10.054;2022-09-09T16:31:09;22.30;68.20
21495;DHT22;10909;53.590;10.054;2022-09-09T16:33:36;22.30;68.10
21495;DHT22;10909;53.590;10.054;2022-09-09T16:36:10;22.30;67.90
21495;DHT22;10909;53.590;10.054;2022-09-09T16:38:36;22.40;67.70
21495;DHT22;10909;53.590;10.054;2022-09-09T16:41:07;22.40;67.50
21495;DHT22;10909;53.590;10.054;2022-09-09T16:43:34;22.40;67.40
21495;DHT22;10909;53.590;10.054;2022-09-09T16:46:03;22.40;67.20
21495;DHT22;10909;53.590;10.054;2022-09-09T16:48:33;22.40;67.00
21495;DHT22;10909;53.590;10.054;2022-09-09T16:51:09;22.40;66.90
21495;DHT22;10909;53.590;10.054;2022-09-09T16:53:36;22.40;66.90
21495;DHT22;10909;53.590;10.054;2022-09-09T16:56:11;22.40;66.80
21495;DHT22;10909;53.590;10.054;2022-09-09T16:58:37;22.40;66.60
21495;DHT22;10909;53.590;10.054;2022-09-09T17:01:08;22.40;66.60
21495;DHT22;10909;53.590;10.054;2022-09-09T17:03:34;22.30;66.50
21495;DHT22;10909;53.590;10.054;2022-09-09T17:05:59;22.30;66.50
21495;DHT22;10909;53.590;10.054;2022-09-09T17:08:29;22.20;66.40
21495;DHT22;10909;53.590;10.054;2022-09-09T17:10:56;22.20;66.40
21495;DHT22;10909;53.590;10.054;2022-09-09T17:13:21;22.20;66.50
21495;DHT22;10909;53.590;10.054;2022-09-09T17:15:47;22.10;66.40
21495;DHT22;10909;53.590;10.054;2022-09-09T17:18:13;22.10;66.40
21495;DHT22;10909;53.590;10.054;2022-09-09T17:20:40;22.10;66.40
21495;DHT22;10909;53.590;10.054;2022-09-09T17:23:06;22.00;66.40
21495;DHT22;10909;53.590;10.054;2022-09-09T17:25:32;22.00;66.40
21495;DHT22;10909;53.590;10.054;2022-09-09T17:27:58;22.00;66.30
21495;DHT22;10909;53.590;10.054;2022-09-09T17:30:25;21.90;66.30
21495;DHT22;10909;53.590;10.054;2022-09-09T17:32:52;21.80;66.30
21495;DHT22;10909;53.590;10.054;2022-09-09T17:35:18;21.80;66.40
21495;DHT22;10909;53.590;10.054;2022-09-09T17:37:45;21.70;66.40